createdAt,value
2022-10-19T00:01:51.133Z,12.20
2022-10-19T00:04:20.553Z,12.10
2022-10-19T00:06:51.144Z,12.10
2022-10-19T00:09:22.825Z,12.10
2022-10-19T00:11:53.017Z,12.00
2022-10-19T00:14:24.776Z,12.00
2022-10-19T00:16:55.987Z,11.90
2022-10-19T00:19:27.508Z,11.80
2022-10-19T00:21:57.909Z,11.70
2022-10-19T00:24:27.078Z,11.70
2022-10-19T00:26:56.201Z,11.70
2022-10-19T00:29:24.856Z,11.50
2022-10-19T00:31:54.293Z,11.40
2022-10-19T00:34:22.974Z,11.30
2022-10-19T00:36:51.837Z,11.20
2022-10-19T00:39:21.984Z,11.20
2022-10-19T00:41:51.864Z,11.10
2022-10-19T00:45:12.905Z,11.10
2022-10-19T00:47:43.108Z,11.00
2022-10-19T00:50:16.332Z,10.90
2022-10-19T00:52:45.504Z,10.90
2022-10-19T00:55:16.133Z,11.00
2022-10-19T00:57:45.263Z,11.10
2022-10-19T01:00:15.494Z,11.00
2022-10-19T01:02:44.977Z,13.30
2022-10-19T01:05:15.177Z,11.00
2022-10-19T01:07:44.364Z,10.90
2022-10-19T01:10:16.084Z,10.90
2022-10-19T01:13:13.347Z,10.90
2022-10-19T01:15:49.959Z,11.00
2022-10-19T01:18:24.325Z,11.00
2022-10-19T01:21:16.197Z,11.00
2022-10-19T01:24:18.192Z,11.00
2022-10-19T01:27:22.481Z,11.20
2022-10-19T01:30:01.415Z,11.20
2022-10-19T01:32:43.251Z,11.20
2022-10-19T01:35:19.829Z,11.10
2022-10-19T01:37:52.085Z,11.00
2022-10-19T01:40:30.740Z,10.90
2022-10-19T01:43:04.700Z,10.70
2022-10-19T01:45:41.083Z,10.60
2022-10-19T01:48:14.555Z,10.40
2022-10-19T01:50:48.137Z,10.50
2022-10-19T01:53:20.754Z,10.70
2022-10-19T01:55:53.099Z,10.50
2022-10-19T01:58:28.891Z,10.40
2022-10-19T02:01:03.906Z,10.40
2022-10-19T02:03:34.450Z,10.50
2022-10-19T02:06:06.956Z,10.50
2022-10-19T02:08:42.200Z,10.70
2022-10-19T02:11:11.246Z,10.90
2022-10-19T02:13:42.502Z,11.20
2022-10-19T02:16:18.036Z,11.30
2022-10-19T02:18:51.083Z,11.40
2022-10-19T02:21:20.422Z,11.40
2022-10-19T02:23:51.940Z,11.40
2022-10-19T02:26:23.878Z,11.30
2022-10-19T02:28:52.927Z,11.30
2022-10-19T02:31:24.009Z,11.40
2022-10-19T02:33:53.645Z,11.40
2022-10-19T02:36:22.883Z,11.40
2022-10-19T02:38:52.039Z,11.30
2022-10-19T02:41:24.939Z,11.40
2022-10-19T02:44:00.754Z,11.40
2022-10-19T02:46:37.743Z,11.40
2022-10-19T02:49:09.932Z,11.40
2022-10-19T02:51:41.748Z,11.40
2022-10-19T02:54:11.206Z,11.50
2022-10-19T02:56:40.074Z,11.50
2022-10-19T02:59:09.213Z,11.40
2022-10-19T03:01:40.031Z,11.50
2022-10-19T03:04:09.281Z,11.60
2022-10-19T03:06:38.563Z,11.60
2022-10-19T03:09:07.734Z,11.60
2022-10-19T03:11:37.440Z,11.40
2022-10-19T03:14:06.877Z,11.40
2022-10-19T03:16:35.858Z,11.40
2022-10-19T03:19:06.438Z,11.40
2022-10-19T03:21:36.650Z,11.40
2022-10-19T03:24:06.146Z,11.40
2022-10-19T03:26:35.418Z,11.40
2022-10-19T03:29:04.707Z,11.50
2022-10-19T03:31:33.924Z,11.40
2022-10-19T03:34:03.218Z,11.40
2022-10-19T03:36:35.573Z,11.40
2022-10-19T03:39:07.815Z,11.30
2022-10-19T03:41:39.473Z,11.20
2022-10-19T03:44:09.935Z,11.20
2022-10-19T03:46:39.644Z,11.20
2022-10-19T03:49:09.525Z,11.10
2022-10-19T03:51:40.040Z,11.00
2022-10-19T03:54:13.132Z,11.00
2022-10-19T03:56:42.368Z,10.80
2022-10-19T03:59:15.252Z,10.90
2022-10-19T04:01:46.855Z,10.80
2022-10-19T04:04:19.109Z,10.70
2022-10-19T04:06:53.521Z,10.80
2022-10-19T04:09:23.977Z,11.00
2022-10-19T04:11:52.881Z,11.10
2022-10-19T04:14:32.406Z,11.10
2022-10-19T04:17:02.016Z,11.10
2022-10-19T04:19:34.140Z,11.00
2022-10-19T04:22:05.026Z,11.00
2022-10-19T04:24:34.097Z,11.00
2022-10-19T04:27:03.900Z,10.90
2022-10-19T04:29:33.100Z,11.00
2022-10-19T04:32:02.313Z,10.90
2022-10-19T04:34:31.584Z,11.00
2022-10-19T04:37:02.054Z,10.90
2022-10-19T04:39:32.900Z,10.90
2022-10-19T04:42:02.236Z,10.80
2022-10-19T04:44:31.449Z,10.80
2022-10-19T04:47:00.538Z,10.80
2022-10-19T04:49:29.892Z,10.90
2022-10-19T04:51:59.607Z,10.70
2022-10-19T04:54:28.926Z,10.70
2022-10-19T04:56:59.819Z,10.60
2022-10-19T04:59:28.519Z,10.50
2022-10-19T05:01:57.577Z,10.50
2022-10-19T05:04:26.966Z,10.40
2022-10-19T05:06:56.083Z,10.50
2022-10-19T05:09:25.127Z,10.50
2022-10-19T05:11:54.531Z,10.50
2022-10-19T05:14:25.769Z,10.40
2022-10-19T05:16:54.947Z,10.50
2022-10-19T05:19:23.916Z,10.40
2022-10-19T05:21:52.956Z,10.30
2022-10-19T05:24:21.979Z,10.40
2022-10-19T05:26:51.267Z,10.30
2022-10-19T05:29:20.039Z,10.30
2022-10-19T05:31:50.787Z,10.20
2022-10-19T05:34:20.159Z,10.40
2022-10-19T05:36:49.347Z,10.40
2022-10-19T05:39:21.708Z,10.50
2022-10-19T05:41:50.605Z,10.50
2022-10-19T05:44:21.215Z,10.50
2022-10-19T05:46:52.856Z,10.40
2022-10-19T05:49:23.674Z,10.40
2022-10-19T05:51:53.159Z,10.60
2022-10-19T05:54:23.852Z,10.60
2022-10-19T05:56:55.390Z,10.60
2022-10-19T05:59:26.454Z,10.70
2022-10-19T06:01:57.098Z,10.70
2022-10-19T06:04:26.220Z,10.70
2022-10-19T06:06:55.179Z,10.70
2022-10-19T06:09:23.899Z,10.70
2022-10-19T06:11:53.066Z,10.70
2022-10-19T06:14:22.322Z,10.70
2022-10-19T06:16:51.559Z,10.80
2022-10-19T06:19:22.726Z,10.70
2022-10-19T06:21:51.664Z,10.80
2022-10-19T06:24:20.750Z,10.80
2022-10-19T06:26:50.082Z,10.70
2022-10-19T06:29:20.173Z,10.80
2022-10-19T06:31:49.974Z,10.80
2022-10-19T06:34:19.187Z,10.80
2022-10-19T06:36:50.090Z,10.80
2022-10-19T06:39:19.994Z,11.00
2022-10-19T06:41:48.841Z,11.00
2022-10-19T06:44:21.446Z,10.80
2022-10-19T06:46:50.962Z,10.90
2022-10-19T06:49:19.919Z,10.90
2022-10-19T06:51:50.600Z,10.90
2022-10-19T06:54:19.793Z,11.00
2022-10-19T06:59:22.790Z,11.10
2022-10-19T07:01:52.000Z,11.10
2022-10-19T07:04:21.458Z,11.20
2022-10-19T07:06:52.110Z,11.10
2022-10-19T07:09:22.650Z,11.10
2022-10-19T07:11:52.637Z,11.30
2022-10-19T07:14:21.961Z,11.20
2022-10-19T07:16:53.113Z,11.50
2022-10-19T07:19:22.319Z,11.40
2022-10-19T07:21:54.995Z,11.50
2022-10-19T07:24:24.629Z,11.50
2022-10-19T07:26:54.248Z,11.70
2022-10-19T07:29:23.732Z,11.70
2022-10-19T07:31:53.089Z,11.80
2022-10-19T07:34:24.289Z,11.70
2022-10-19T07:36:58.044Z,11.80
2022-10-19T07:39:27.664Z,11.90
2022-10-19T07:41:57.361Z,13.10
2022-10-19T07:44:26.817Z,12.10
2022-10-19T07:46:55.558Z,12.20
2022-10-19T07:49:25.042Z,12.00
2022-10-19T07:51:55.680Z,12.00
2022-10-19T07:54:27.836Z,12.30
2022-10-19T07:56:57.380Z,12.30
2022-10-19T07:59:26.144Z,12.30
2022-10-19T08:01:56.402Z,12.40
2022-10-19T08:04:55.948Z,12.30
2022-10-19T08:07:23.887Z,12.50
2022-10-19T08:09:54.806Z,12.30
2022-10-19T08:12:24.325Z,12.30
2022-10-19T08:14:54.784Z,12.40
2022-10-19T08:17:23.854Z,12.40
2022-10-19T08:19:52.807Z,12.10
2022-10-19T08:22:21.800Z,12.40
2022-10-19T08:24:51.023Z,12.50
2022-10-19T08:27:21.488Z,12.70
2022-10-19T08:29:51.123Z,12.60
2022-10-19T08:32:20.867Z,12.60
2022-10-19T08:34:50.174Z,12.70
2022-10-19T08:37:32.566Z,12.80
2022-10-19T08:40:10.252Z,12.80
2022-10-19T08:42:48.899Z,12.90
2022-10-19T08:48:30.087Z,13.20
2022-10-19T08:51:01.068Z,13.10
2022-10-19T08:53:39.202Z,13.30
2022-10-19T08:56:45.937Z,13.30
2022-10-19T08:59:18.523Z,13.30
2022-10-19T09:01:52.488Z,13.50
2022-10-19T09:04:25.973Z,14.20
2022-10-19T09:07:22.728Z,14.30
2022-10-19T09:09:55.428Z,14.70
2022-10-19T09:12:37.868Z,14.60
2022-10-19T09:15:13.007Z,16.30
2022-10-19T09:17:44.519Z,14.60
2022-10-19T09:20:21.307Z,16.30
2022-10-19T09:23:01.566Z,16.50
2022-10-19T09:25:33.209Z,16.20
2022-10-19T09:28:12.250Z,15.10
2022-10-19T09:30:44.721Z,14.70
2022-10-19T09:33:21.478Z,15.00
2022-10-19T09:35:50.913Z,15.80
2022-10-19T09:38:22.589Z,15.80
2022-10-19T09:40:51.233Z,15.80
2022-10-19T09:43:22.296Z,15.70
2022-10-19T09:45:57.254Z,15.10
2022-10-19T09:48:31.457Z,15.00
2022-10-19T09:51:02.278Z,14.70
2022-10-19T09:53:31.650Z,14.60
2022-10-19T09:56:05.649Z,14.90
2022-10-19T09:58:38.473Z,14.60
2022-10-19T10:01:08.980Z,14.60
2022-10-19T10:03:40.921Z,14.40
2022-10-19T10:06:12.536Z,14.30
2022-10-19T10:08:48.611Z,14.30
2022-10-19T10:11:25.260Z,14.50
2022-10-19T10:13:56.106Z,14.60
2022-10-19T10:16:33.447Z,15.00
2022-10-19T10:19:05.845Z,15.20
2022-10-19T10:21:39.095Z,16.00
2022-10-19T10:24:19.016Z,16.10
2022-10-19T10:26:50.045Z,15.40
2022-10-19T10:29:21.394Z,15.60
2022-10-19T10:31:55.703Z,15.60
2022-10-19T10:34:49.562Z,15.40
2022-10-19T10:37:23.351Z,15.50
2022-10-19T10:39:55.849Z,15.70
2022-10-19T10:42:32.179Z,15.30
2022-10-19T10:45:02.456Z,15.20
2022-10-19T10:47:33.302Z,15.60
2022-10-19T10:50:07.415Z,16.00
2022-10-19T10:52:37.510Z,15.70
2022-10-19T10:55:21.255Z,15.70
2022-10-19T10:57:56.779Z,16.00
2022-10-19T11:00:25.712Z,16.00
2022-10-19T11:03:04.451Z,15.90
2022-10-19T11:05:40.597Z,15.80
2022-10-19T11:08:22.436Z,15.40
2022-10-19T11:10:57.023Z,15.30
2022-10-19T11:13:30.654Z,14.70
2022-10-19T11:16:05.379Z,14.50
2022-10-19T11:18:40.099Z,14.30
2022-10-19T11:21:14.119Z,14.20
2022-10-19T11:23:58.523Z,13.90
2022-10-19T11:26:43.467Z,14.70
2022-10-19T11:29:28.641Z,13.60
2022-10-19T11:31:58.708Z,13.30
2022-10-19T11:34:46.541Z,13.40
2022-10-19T11:37:25.763Z,13.30
2022-10-19T11:40:06.046Z,13.40
2022-10-19T11:42:51.626Z,13.30
2022-10-19T11:45:34.186Z,13.60
2022-10-19T11:48:20.915Z,12.80
2022-10-19T11:50:58.868Z,13.60
2022-10-19T11:53:53.708Z,13.80
2022-10-19T11:56:39.190Z,13.50
2022-10-19T11:59:31.278Z,13.40
2022-10-19T12:02:17.034Z,13.10
2022-10-19T12:04:58.882Z,13.00
2022-10-19T12:07:51.854Z,12.90
2022-10-19T12:10:29.650Z,12.90
2022-10-19T12:13:03.450Z,13.10
2022-10-19T12:15:37.187Z,13.30
2022-10-19T12:18:16.101Z,13.40
2022-10-19T12:20:49.845Z,13.50
2022-10-19T12:23:39.669Z,13.80
2022-10-19T12:26:10.665Z,14.10
2022-10-19T12:28:43.722Z,13.80
2022-10-19T12:31:13.930Z,13.60
2022-10-19T12:33:51.866Z,13.60
2022-10-19T12:36:37.553Z,13.40
2022-10-19T12:39:16.319Z,13.20
2022-10-19T12:41:52.448Z,13.10
2022-10-19T12:44:44.750Z,13.10
2022-10-19T12:47:17.540Z,13.20
2022-10-19T12:49:49.055Z,13.10
2022-10-19T12:52:36.651Z,13.20
2022-10-19T12:55:35.240Z,13.40
2022-10-19T12:58:08.405Z,13.40
2022-10-19T13:00:40.014Z,13.20
2022-10-19T13:03:16.854Z,13.30
2022-10-19T13:05:58.820Z,13.10
2022-10-19T13:08:32.794Z,13.10
2022-10-19T13:11:15.372Z,13.10
2022-10-19T13:14:07.111Z,13.50
2022-10-19T13:16:43.721Z,13.40
2022-10-19T13:19:23.000Z,13.20
2022-10-19T13:22:11.941Z,12.90
2022-10-19T13:27:37.853Z,12.70
2022-10-19T13:30:30.297Z,12.60
2022-10-19T13:33:00.356Z,12.50
2022-10-19T13:35:35.482Z,12.30
2022-10-19T13:38:26.930Z,12.40
2022-10-19T13:41:04.303Z,12.50
2022-10-19T13:43:42.536Z,12.70
2022-10-19T13:46:15.057Z,12.90
2022-10-19T13:49:30.374Z,13.00
2022-10-19T13:52:37.985Z,13.00
2022-10-19T13:55:37.332Z,13.40
2022-10-19T13:58:27.628Z,13.80
2022-10-19T14:01:25.283Z,14.20
2022-10-19T14:04:06.220Z,14.30
2022-10-19T14:06:40.196Z,14.20
2022-10-19T14:09:46.279Z,13.80
2022-10-19T14:12:24.004Z,13.60
2022-10-19T14:14:54.129Z,13.90
2022-10-19T14:17:28.025Z,14.10
2022-10-19T14:19:59.931Z,14.40
2022-10-19T14:22:31.234Z,16.60
2022-10-19T14:25:07.528Z,16.90
2022-10-19T14:27:37.861Z,17.90
2022-10-19T14:30:08.378Z,17.20
2022-10-19T14:35:22.356Z,17.30
2022-10-19T14:37:52.335Z,16.30
2022-10-19T14:40:28.967Z,15.70
2022-10-19T14:42:58.888Z,14.80
2022-10-19T14:45:29.798Z,15.10
2022-10-19T14:48:03.342Z,14.40
2022-10-19T14:50:43.285Z,13.60
2022-10-19T14:53:27.499Z,13.30
2022-10-19T14:56:01.667Z,13.10
2022-10-19T14:58:37.954Z,13.00
2022-10-19T15:01:07.783Z,12.80
2022-10-19T15:03:43.634Z,12.80
2022-10-19T15:06:21.374Z,12.60
2022-10-19T15:08:55.008Z,12.60
2022-10-19T15:11:28.299Z,12.50
2022-10-19T15:14:04.250Z,12.40
2022-10-19T15:16:42.486Z,12.40
2022-10-19T15:19:23.812Z,12.30
2022-10-19T15:22:07.946Z,12.10
2022-10-19T15:24:38.433Z,12.10
2022-10-19T15:27:12.725Z,12.00
2022-10-19T15:29:56.150Z,12.00
2022-10-19T15:32:28.498Z,12.20
2022-10-19T15:34:59.738Z,12.00
2022-10-19T15:37:28.726Z,11.70
2022-10-19T15:39:57.837Z,11.60
2022-10-19T15:42:40.642Z,11.50
2022-10-19T15:45:33.726Z,11.50
2022-10-19T15:48:30.255Z,11.50
2022-10-19T15:51:00.681Z,11.50
2022-10-19T15:53:30.153Z,11.40
2022-10-19T15:56:00.926Z,11.40
2022-10-19T15:58:30.729Z,11.30
2022-10-19T16:01:00.227Z,11.20
2022-10-19T16:03:29.320Z,11.20
2022-10-19T16:06:00.053Z,11.20
2022-10-19T16:08:29.474Z,11.10
2022-10-19T16:10:58.848Z,11.00
2022-10-19T16:13:27.852Z,11.10
2022-10-19T16:16:11.264Z,11.10
2022-10-19T16:18:40.704Z,11.10
2022-10-19T16:21:11.300Z,11.10
2022-10-19T16:23:42.092Z,11.20
2022-10-19T16:26:13.418Z,11.10
2022-10-19T16:28:45.657Z,10.80
2022-10-19T16:31:14.969Z,10.70
2022-10-19T16:33:43.709Z,10.60
2022-10-19T16:36:15.532Z,10.60
2022-10-19T16:38:45.291Z,10.60
2022-10-19T16:41:15.017Z,10.60
2022-10-19T16:43:44.866Z,10.70
2022-10-19T16:46:13.928Z,10.70
2022-10-19T16:48:42.997Z,10.80
2022-10-19T16:51:29.650Z,10.80
2022-10-19T16:53:59.908Z,10.90
2022-10-19T16:56:31.083Z,10.80
2022-10-19T16:59:04.007Z,10.80
2022-10-19T17:01:34.430Z,10.70
2022-10-19T17:04:03.911Z,10.50
2022-10-19T17:06:35.763Z,10.40
2022-10-19T17:11:57.985Z,10.30
2022-10-19T17:14:26.601Z,10.40
2022-10-19T17:16:55.558Z,10.40
2022-10-19T17:19:25.410Z,10.20
2022-10-19T17:21:57.099Z,10.20
2022-10-19T17:24:27.011Z,10.10
2022-10-19T17:26:56.360Z,10.10
2022-10-19T17:29:25.983Z,8.30
2022-10-19T17:31:55.121Z,9.90
2022-10-19T17:34:24.123Z,9.90
2022-10-19T17:36:55.254Z,9.80
2022-10-19T17:39:28.995Z,9.80
2022-10-19T17:42:02.355Z,9.60
2022-10-19T17:44:32.617Z,9.40
2022-10-19T17:47:03.599Z,9.10
2022-10-19T17:49:32.774Z,8.90
2022-10-19T17:52:04.234Z,8.90
2022-10-19T17:54:43.471Z,8.90
2022-10-19T17:57:23.030Z,8.90
2022-10-19T17:59:53.107Z,8.90
2022-10-19T18:02:22.668Z,8.90
2022-10-19T18:04:52.913Z,8.90
2022-10-19T18:07:25.868Z,8.80
2022-10-19T18:09:55.884Z,8.80
2022-10-19T18:12:24.671Z,8.80
2022-10-19T18:14:54.169Z,8.70
2022-10-19T18:17:26.910Z,8.70
2022-10-19T18:19:57.724Z,8.50
2022-10-19T18:22:30.280Z,8.40
2022-10-19T18:25:01.754Z,8.20
2022-10-19T18:27:31.198Z,8.10
2022-10-19T18:30:00.625Z,8.30
2022-10-19T18:32:30.729Z,8.20
2022-10-19T18:35:00.609Z,8.40
2022-10-19T18:37:33.077Z,8.30
2022-10-19T18:40:03.131Z,8.30
2022-10-19T18:42:33.830Z,8.10
2022-10-19T18:45:06.342Z,7.90
2022-10-19T18:47:35.774Z,7.80
2022-10-19T18:50:05.667Z,7.80
2022-10-19T18:52:38.281Z,7.70
2022-10-19T18:55:10.095Z,7.60
2022-10-19T18:57:39.555Z,7.60
2022-10-19T19:00:10.504Z,7.40
2022-10-19T19:02:46.935Z,7.40
2022-10-19T19:05:17.423Z,7.40
2022-10-19T19:07:48.877Z,7.30
2022-10-19T19:10:18.981Z,7.30
2022-10-19T19:12:52.973Z,7.10
2022-10-19T19:15:22.934Z,7.10
2022-10-19T19:17:56.900Z,7.10
2022-10-19T19:20:26.405Z,7.10
2022-10-19T19:22:56.896Z,7.20
2022-10-19T19:25:27.040Z,7.00
2022-10-19T19:27:56.984Z,6.90
2022-10-19T19:30:42.076Z,7.00
2022-10-19T19:33:11.801Z,7.00
2022-10-19T19:35:45.738Z,7.00
2022-10-19T19:38:17.917Z,7.10
2022-10-19T19:40:49.485Z,7.10
2022-10-19T19:43:20.884Z,7.10
2022-10-19T19:46:00.971Z,6.90
2022-10-19T19:48:32.760Z,6.90
2022-10-19T19:51:01.852Z,6.70
2022-10-19T19:53:33.439Z,6.40
2022-10-19T19:56:04.727Z,6.30
2022-10-19T19:58:36.367Z,6.20
2022-10-19T20:01:12.547Z,6.20
2022-10-19T20:03:45.347Z,6.10
2022-10-19T20:06:19.695Z,6.00
2022-10-19T20:08:54.338Z,5.90
2022-10-19T20:11:25.349Z,6.00
2022-10-19T20:13:55.664Z,6.00
2022-10-19T20:16:29.216Z,6.00
2022-10-19T20:19:02.920Z,5.80
2022-10-19T20:21:34.032Z,5.70
2022-10-19T20:24:05.691Z,5.70
2022-10-19T20:26:35.912Z,5.90
2022-10-19T20:29:06.499Z,5.80
2022-10-19T20:31:40.245Z,5.80
2022-10-19T20:34:14.197Z,5.70
2022-10-19T20:36:44.722Z,5.70
2022-10-19T20:39:16.527Z,5.80
2022-10-19T20:41:46.101Z,5.70
2022-10-19T20:44:15.930Z,5.60
2022-10-19T20:46:45.705Z,5.40
2022-10-19T20:49:15.454Z,5.40
2022-10-19T20:51:45.249Z,3.30
2022-10-19T20:54:19.112Z,5.20
2022-10-19T20:56:48.790Z,5.00
2022-10-19T20:59:20.446Z,4.80
2022-10-19T21:01:52.592Z,4.70
2022-10-19T21:04:21.758Z,4.70
2022-10-19T21:06:52.602Z,4.70
2022-10-19T21:09:26.617Z,4.60
2022-10-19T21:11:55.860Z,4.60
2022-10-19T21:14:28.783Z,5.00
2022-10-19T21:16:59.080Z,4.80
2022-10-19T21:19:30.094Z,4.50
2022-10-19T21:22:03.448Z,4.30
2022-10-19T21:24:38.455Z,4.10
2022-10-19T21:27:10.432Z,4.10
2022-10-19T21:29:40.070Z,4.30
2022-10-19T21:32:09.141Z,4.20
2022-10-19T21:34:38.402Z,4.10
2022-10-19T21:37:08.474Z,4.10
2022-10-19T21:39:39.801Z,4.10
2022-10-19T21:42:08.819Z,4.00
2022-10-19T21:44:39.988Z,4.00
2022-10-19T21:47:09.685Z,3.90
2022-10-19T21:49:39.186Z,3.80
2022-10-19T21:52:09.733Z,3.70
2022-10-19T21:54:41.917Z,3.70
2022-10-19T21:57:13.137Z,3.80
2022-10-19T21:59:46.625Z,3.90
2022-10-19T22:02:17.693Z,3.90
2022-10-19T22:04:49.025Z,4.00
2022-10-19T22:07:18.601Z,4.00
2022-10-19T22:09:51.775Z,4.10
2022-10-19T22:12:22.892Z,4.10
2022-10-19T22:14:56.499Z,4.20
2022-10-19T22:17:25.592Z,4.20
2022-10-19T22:19:54.371Z,4.20
2022-10-19T22:22:23.387Z,4.20
2022-10-19T22:24:55.980Z,4.10
2022-10-19T22:27:24.808Z,4.00
2022-10-19T22:29:54.173Z,3.90
2022-10-19T22:32:23.044Z,3.80
2022-10-19T22:34:51.844Z,3.70
2022-10-19T22:37:21.383Z,3.60
2022-10-19T22:39:50.134Z,3.50
2022-10-19T22:42:45.808Z,3.40
2022-10-19T22:45:14.731Z,3.30
2022-10-19T22:47:43.804Z,3.20
2022-10-19T22:50:13.147Z,4.30
2022-10-19T22:52:42.209Z,3.10
2022-10-19T22:55:11.299Z,3.00
2022-10-19T22:57:40.194Z,3.00
2022-10-19T23:00:12.759Z,2.90
2022-10-19T23:02:42.006Z,2.90
2022-10-19T23:05:11.569Z,2.80
2022-10-19T23:07:40.534Z,2.80
2022-10-19T23:10:11.008Z,2.70
2022-10-19T23:12:40.392Z,2.60
2022-10-19T23:15:12.467Z,2.50
2022-10-19T23:17:41.744Z,2.50
2022-10-19T23:20:12.208Z,2.40
2022-10-19T23:22:41.523Z,2.50
2022-10-19T23:25:12.778Z,2.50
2022-10-19T23:27:42.388Z,2.60
2022-10-19T23:30:13.708Z,2.50
2022-10-19T23:32:42.298Z,2.50
2022-10-19T23:35:13.652Z,2.50
2022-10-19T23:37:42.543Z,3.10
2022-10-19T23:40:14.319Z,2.70
2022-10-19T23:42:43.977Z,2.30
2022-10-19T23:45:18.082Z,2.50
2022-10-19T23:47:47.080Z,2.00
2022-10-19T23:50:15.751Z,2.00
2022-10-19T23:52:44.921Z,2.00
2022-10-19T23:55:14.022Z,2.30
2022-10-19T23:57:44.690Z,1.90
